createdAt,value
2017-02-19T00:00:10.683Z,1023.03
2017-02-19T00:01:20.021Z,1023.07
2017-02-19T00:02:29.756Z,1023.05
2017-02-19T00:03:39.224Z,1023.05
2017-02-19T00:04:48.973Z,1023.01
2017-02-19T00:05:58.693Z,1023
2017-02-19T00:07:08.035Z,1023
2017-02-19T00:08:17.355Z,1023.01
2017-02-19T00:09:26.837Z,1023.02
2017-02-19T00:10:36.571Z,1023.07
2017-02-19T00:11:45.903Z,1023.07
2017-02-19T00:12:54.825Z,1023.09
2017-02-19T00:14:04.572Z,1023.04
2017-02-19T00:15:14.549Z,1023.01
2017-02-19T00:16:23.888Z,1023.01
2017-02-19T00:17:33.638Z,1022.99
2017-02-19T00:18:43.808Z,1022.95
2017-02-19T00:19:53.148Z,1022.9
2017-02-19T00:21:02.911Z,1022.91
2017-02-19T00:22:12.656Z,1022.92
2017-02-19T00:23:22.786Z,1022.94
2017-02-19T00:24:32.111Z,1022.9
2017-02-19T00:25:41.033Z,1022.88
2017-02-19T00:26:50.892Z,1022.84
2017-02-19T00:28:00.638Z,1022.87
2017-02-19T00:29:10.383Z,1022.86
2017-02-19T00:30:20.107Z,1022.79
2017-02-19T00:31:29.826Z,1022.82
2017-02-19T00:32:39.439Z,1022.77
2017-02-19T00:33:48.376Z,1022.79
2017-02-19T00:34:57.320Z,1022.78
2017-02-19T00:36:07.056Z,1022.84
2017-02-19T00:37:16.371Z,1022.8
2017-02-19T00:38:25.853Z,1022.77
2017-02-19T00:39:35.592Z,1022.8
2017-02-19T00:40:45.342Z,1022.78
2017-02-19T00:41:54.279Z,1022.79
2017-02-19T00:43:03.591Z,1022.77
2017-02-19T00:44:12.910Z,1022.73
2017-02-19T00:45:22.640Z,1022.69
2017-02-19T00:46:31.995Z,1022.71
2017-02-19T00:47:41.311Z,1022.71
2017-02-19T00:48:50.634Z,1022.71
2017-02-19T00:50:00.510Z,1022.72
2017-02-19T00:51:10.245Z,1022.68
2017-02-19T00:52:19.179Z,1022.68
2017-02-19T00:53:28.923Z,1022.69
2017-02-19T00:54:38.647Z,1022.67
2017-02-19T00:55:48.669Z,1022.65
2017-02-19T00:56:57.584Z,1022.65
2017-02-19T00:58:07.730Z,1022.67
2017-02-19T00:59:16.656Z,1022.64
2017-02-19T01:00:26.401Z,1022.65
2017-02-19T01:01:36.169Z,1022.6
2017-02-19T01:02:45.496Z,1022.62
2017-02-19T01:03:54.848Z,1022.65
2017-02-19T01:05:04.171Z,1022.61
2017-02-19T01:06:14.326Z,1022.54
2017-02-19T01:07:23.747Z,1022.59
2017-02-19T01:08:32.695Z,1022.55
2017-02-19T01:09:42.847Z,1022.55
2017-02-19T01:10:53.042Z,1022.47
2017-02-19T01:12:02.778Z,1022.45
2017-02-19T01:13:12.668Z,1022.44
2017-02-19T01:14:21.994Z,1022.46
2017-02-19T01:15:31.330Z,1022.4
2017-02-19T01:16:40.649Z,1022.45
2017-02-19T01:17:50.390Z,1022.42
2017-02-19T01:19:00.423Z,1022.35
2017-02-19T01:20:10.576Z,1022.33
2017-02-19T01:21:20.321Z,1022.3
2017-02-19T01:22:29.644Z,1022.27
2017-02-19T01:23:38.981Z,1022.24
2017-02-19T01:24:49.250Z,1022.25
2017-02-19T01:25:58.575Z,1022.2
2017-02-19T01:27:07.893Z,1022.26
2017-02-19T01:28:17.205Z,1022.25
2017-02-19T01:29:26.534Z,1022.22
2017-02-19T01:30:35.966Z,1022.22
2017-02-19T01:31:45.309Z,1022.2
2017-02-19T01:32:54.629Z,1022.16
2017-02-19T01:34:03.963Z,1022.18
2017-02-19T01:35:13.710Z,1022.16
2017-02-19T01:36:22.773Z,1022.13
2017-02-19T01:37:32.104Z,1022.16
2017-02-19T01:38:41.440Z,1022.1
2017-02-19T01:39:50.376Z,1022.14
2017-02-19T01:41:00.101Z,1022.13
2017-02-19T01:42:09.957Z,1022.06
2017-02-19T01:43:19.286Z,1022.04
2017-02-19T01:44:28.626Z,1021.99
2017-02-19T01:45:37.961Z,1021.99
2017-02-19T01:46:47.277Z,1021.92
2017-02-19T01:47:57.559Z,1021.93
2017-02-19T01:49:06.901Z,1021.91
2017-02-19T01:50:16.650Z,1021.95
2017-02-19T01:51:25.983Z,1021.9
2017-02-19T01:52:34.927Z,1021.92
2017-02-19T01:53:44.913Z,1021.91
2017-02-19T01:54:55.041Z,1021.89
2017-02-19T01:56:03.974Z,1021.82
2017-02-19T01:57:13.291Z,1021.88
2017-02-19T01:58:22.205Z,1021.75
2017-02-19T01:59:31.724Z,1021.81
2017-02-19T02:00:40.640Z,1021.77
2017-02-19T02:01:49.562Z,1021.73
2017-02-19T02:02:58.477Z,1021.73
2017-02-19T02:04:08.211Z,1021.67
2017-02-19T02:05:17.691Z,1021.65
2017-02-19T02:06:27.829Z,1021.62
2017-02-19T02:07:37.155Z,1021.59
2017-02-19T02:08:46.478Z,1021.59
2017-02-19T02:09:55.389Z,1021.6
2017-02-19T02:11:05.161Z,1021.61
2017-02-19T02:12:14.490Z,1021.56
2017-02-19T02:13:23.414Z,1021.55
2017-02-19T02:14:33.153Z,1021.49
2017-02-19T02:15:42.885Z,1021.46
2017-02-19T02:16:51.892Z,1021.4
2017-02-19T02:18:01.616Z,1021.41
2017-02-19T02:19:11.345Z,1021.4
2017-02-19T02:20:21.099Z,1021.37
2017-02-19T02:21:30.021Z,1021.35
2017-02-19T02:22:38.982Z,1021.35
2017-02-19T02:23:47.899Z,1021.33
2017-02-19T02:24:57.243Z,1021.33
2017-02-19T02:26:06.994Z,1021.33
2017-02-19T02:27:16.717Z,1021.29
2017-02-19T02:28:26.907Z,1021.24
2017-02-19T02:29:36.632Z,1021.2
2017-02-19T02:30:45.965Z,1021.14
2017-02-19T02:31:55.685Z,1021.12
2017-02-19T02:33:05.020Z,1021.1
2017-02-19T02:34:14.407Z,1021.09
2017-02-19T02:35:24.163Z,1021.05
2017-02-19T02:36:34.299Z,1020.99
2017-02-19T02:37:43.613Z,1020.98
2017-02-19T02:38:53.340Z,1020.94
2017-02-19T02:40:03.586Z,1020.97
2017-02-19T02:41:12.492Z,1020.88
2017-02-19T02:42:22.233Z,1020.89
2017-02-19T02:43:31.578Z,1020.86
2017-02-19T02:44:41.330Z,1020.83
2017-02-19T02:45:51.224Z,1020.82
2017-02-19T02:47:01.375Z,1020.86
2017-02-19T02:48:11.944Z,1020.82
2017-02-19T02:49:22.078Z,1020.85
2017-02-19T02:50:31.406Z,1020.89
2017-02-19T02:51:40.889Z,1020.89
2017-02-19T02:52:50.229Z,1020.94
2017-02-19T02:53:59.981Z,1020.93
2017-02-19T02:55:09.307Z,1020.9
2017-02-19T02:56:18.240Z,1020.85
2017-02-19T02:57:28.526Z,1020.85
2017-02-19T02:58:38.263Z,1020.8
2017-02-19T02:59:48.006Z,1020.78
2017-02-19T03:00:57.329Z,1020.78
2017-02-19T03:02:07.889Z,1020.73
2017-02-19T03:03:17.308Z,1020.77
2017-02-19T03:04:26.635Z,1020.75
2017-02-19T03:05:36.370Z,1020.79
2017-02-19T03:06:45.726Z,1020.8
2017-02-19T03:07:55.886Z,1020.75
2017-02-19T03:09:04.956Z,1020.73
2017-02-19T03:10:14.689Z,1020.74
2017-02-19T03:11:24.013Z,1020.64
2017-02-19T03:12:33.756Z,1020.62
2017-02-19T03:13:43.914Z,1020.64
2017-02-19T03:14:53.872Z,1020.61
2017-02-19T03:16:03.615Z,1020.55
2017-02-19T03:17:13.358Z,1020.56
2017-02-19T03:18:23.089Z,1020.59
2017-02-19T03:19:32.409Z,1020.44
2017-02-19T03:20:41.778Z,1020.53
2017-02-19T03:21:51.104Z,1020.47
2017-02-19T03:23:01.242Z,1020.49
2017-02-19T03:24:10.982Z,1020.51
2017-02-19T03:25:20.306Z,1020.52
2017-02-19T03:26:29.804Z,1020.52
2017-02-19T03:27:38.711Z,1020.47
2017-02-19T03:28:48.033Z,1020.46
2017-02-19T03:29:56.957Z,1020.45
2017-02-19T03:31:06.682Z,1020.49
2017-02-19T03:32:16.049Z,1020.5
2017-02-19T03:33:25.367Z,1020.45
2017-02-19T03:34:34.720Z,1020.57
2017-02-19T03:35:43.640Z,1020.61
2017-02-19T03:36:53.806Z,1020.56
2017-02-19T03:38:03.157Z,1020.57
2017-02-19T03:39:12.880Z,1020.58
2017-02-19T03:40:22.628Z,1020.6
2017-02-19T03:41:31.964Z,1020.66
2017-02-19T03:42:40.874Z,1020.62
2017-02-19T03:43:50.910Z,1020.61
2017-02-19T03:45:00.224Z,1020.6
2017-02-19T03:46:09.155Z,1020.64
2017-02-19T03:47:18.501Z,1020.61
2017-02-19T03:48:27.431Z,1020.57
2017-02-19T03:49:37.226Z,1020.51
2017-02-19T03:50:46.565Z,1020.55
2017-02-19T03:51:55.478Z,1020.53
2017-02-19T03:53:05.209Z,1020.5
2017-02-19T03:54:14.935Z,1020.44
2017-02-19T03:55:24.564Z,1020.49
2017-02-19T03:56:34.709Z,1020.48
2017-02-19T03:57:44.455Z,1020.41
2017-02-19T03:58:53.789Z,1020.42
2017-02-19T04:00:02.725Z,1020.38
2017-02-19T04:01:12.149Z,1020.4
2017-02-19T04:02:21.474Z,1020.39
2017-02-19T04:03:30.796Z,1020.42
2017-02-19T04:04:40.619Z,1020.38
2017-02-19T04:05:49.949Z,1020.42
2017-02-19T04:07:00.401Z,1020.44
2017-02-19T04:08:09.731Z,1020.42
2017-02-19T04:09:19.074Z,1020.47
2017-02-19T04:10:28.805Z,1020.43
2017-02-19T04:11:38.151Z,1020.35
2017-02-19T04:12:47.992Z,1020.37
2017-02-19T04:13:57.725Z,1020.42
2017-02-19T04:15:07.452Z,1020.38
2017-02-19T04:16:17.190Z,1020.36
2017-02-19T04:17:26.925Z,1020.29
2017-02-19T04:18:37.218Z,1020.27
2017-02-19T04:19:46.159Z,1020.26
2017-02-19T04:20:55.092Z,1020.22
2017-02-19T04:22:03.999Z,1020.14
2017-02-19T04:23:13.332Z,1020.13
2017-02-19T04:24:22.761Z,1020.12
2017-02-19T04:25:31.673Z,1020.11
2017-02-19T04:26:40.613Z,1020.09
2017-02-19T04:27:49.972Z,1020.11
2017-02-19T04:28:59.709Z,1020.13
2017-02-19T04:30:10.300Z,1020.16
2017-02-19T04:31:19.618Z,1020.12
2017-02-19T04:32:29.341Z,1020.04
2017-02-19T04:33:38.679Z,1020.02
2017-02-19T04:34:47.994Z,1019.98
2017-02-19T04:35:58.670Z,1020
2017-02-19T04:37:07.987Z,1020.02
2017-02-19T04:38:16.918Z,1020
2017-02-19T04:39:26.657Z,1019.97
2017-02-19T04:40:35.575Z,1019.96
2017-02-19T04:41:44.953Z,1019.9
2017-02-19T04:42:55.085Z,1019.93
2017-02-19T04:44:04.805Z,1020
2017-02-19T04:45:14.942Z,1020.03
2017-02-19T04:46:23.872Z,1020.04
2017-02-19T04:47:33.694Z,1019.96
2017-02-19T04:48:43.015Z,1019.92
2017-02-19T04:49:52.340Z,1019.95
2017-02-19T04:51:02.480Z,1019.88
2017-02-19T04:52:12.209Z,1019.93
2017-02-19T04:53:22.096Z,1019.89
2017-02-19T04:54:31.018Z,1019.9
2017-02-19T04:55:40.745Z,1019.82
2017-02-19T04:56:50.470Z,1019.84
2017-02-19T04:57:59.377Z,1019.78
2017-02-19T04:59:09.425Z,1019.75
2017-02-19T05:00:18.759Z,1019.73
2017-02-19T05:01:28.085Z,1019.71
2017-02-19T05:02:37.398Z,1019.67
2017-02-19T05:03:46.760Z,1019.62
2017-02-19T05:04:55.879Z,1019.66
2017-02-19T05:06:05.612Z,1019.6
2017-02-19T05:07:15.347Z,1019.61
2017-02-19T05:08:24.659Z,1019.61
2017-02-19T05:09:33.977Z,1019.55
2017-02-19T05:10:43.039Z,1019.58
2017-02-19T05:11:52.367Z,1019.55
2017-02-19T05:13:01.688Z,1019.54
2017-02-19T05:14:10.607Z,1019.56
2017-02-19T05:15:19.930Z,1019.57
2017-02-19T05:16:30.769Z,1019.48
2017-02-19T05:17:40.099Z,1019.55
2017-02-19T05:18:50.244Z,1019.58
2017-02-19T05:20:00.398Z,1019.51
2017-02-19T05:21:10.131Z,1019.46
2017-02-19T05:22:19.558Z,1019.5
2017-02-19T05:23:28.464Z,1019.47
2017-02-19T05:24:38.203Z,1019.4
2017-02-19T05:25:47.945Z,1019.43
2017-02-19T05:26:57.691Z,1019.43
2017-02-19T05:28:07.163Z,1019.36
2017-02-19T05:29:16.898Z,1019.33
2017-02-19T05:30:26.250Z,1019.28
2017-02-19T05:31:35.585Z,1019.31
2017-02-19T05:32:44.914Z,1019.32
2017-02-19T05:33:54.699Z,1019.27
2017-02-19T05:35:04.032Z,1019.27
2017-02-19T05:36:12.945Z,1019.28
2017-02-19T05:37:22.665Z,1019.21
2017-02-19T05:38:32.003Z,1019.24
2017-02-19T05:39:41.231Z,1019.23
2017-02-19T05:40:50.571Z,1019.18
2017-02-19T05:41:59.911Z,1019.16
2017-02-19T05:43:08.831Z,1019.11
2017-02-19T05:44:18.562Z,1019.12
2017-02-19T05:45:27.467Z,1019.15
2017-02-19T05:46:36.800Z,1019.12
2017-02-19T05:47:46.551Z,1019.06
2017-02-19T05:48:55.869Z,1019.08
2017-02-19T05:50:05.186Z,1019.07
2017-02-19T05:51:14.609Z,1019.09
2017-02-19T05:52:24.363Z,1019.12
2017-02-19T05:53:33.684Z,1019.11
2017-02-19T05:54:43.821Z,1019.12
2017-02-19T05:55:52.744Z,1019.12
2017-02-19T05:57:01.811Z,1019.12
2017-02-19T05:58:12.378Z,1019.08
2017-02-19T05:59:21.295Z,1019.1
2017-02-19T06:00:30.629Z,1019.1
2017-02-19T06:01:40.771Z,1019.07
2017-02-19T06:02:50.233Z,1019.12
2017-02-19T06:03:59.969Z,1019.08
2017-02-19T06:05:10.124Z,1019.07
2017-02-19T06:06:20.273Z,1019.05
2017-02-19T06:07:29.221Z,1018.97
2017-02-19T06:08:38.636Z,1019.04
2017-02-19T06:09:48.403Z,1019.03
2017-02-19T06:10:57.725Z,1019.01
2017-02-19T06:12:07.468Z,1019.05
2017-02-19T06:13:16.407Z,1019
2017-02-19T06:14:26.545Z,1018.98
2017-02-19T06:15:35.869Z,1019.02
2017-02-19T06:16:45.606Z,1019.05
2017-02-19T06:17:55.343Z,1018.99
2017-02-19T06:19:04.670Z,1018.99
2017-02-19T06:20:14.451Z,1019
2017-02-19T06:21:23.779Z,1018.99
2017-02-19T06:22:33.118Z,1018.97
2017-02-19T06:23:42.469Z,1018.91
2017-02-19T06:24:52.605Z,1018.92
2017-02-19T06:26:02.647Z,1018.93
2017-02-19T06:27:12.386Z,1018.88
2017-02-19T06:28:22.140Z,1018.86
2017-02-19T06:29:32.276Z,1018.78
2017-02-19T06:30:41.200Z,1018.84
2017-02-19T06:31:50.696Z,1018.92
2017-02-19T06:33:00.432Z,1018.84
2017-02-19T06:34:10.189Z,1018.85
2017-02-19T06:35:20.372Z,1018.88
2017-02-19T06:36:29.308Z,1018.87
2017-02-19T06:37:38.802Z,1018.91
2017-02-19T06:38:48.538Z,1018.84
2017-02-19T06:39:58.288Z,1018.9
2017-02-19T06:41:08.438Z,1018.88
2017-02-19T06:42:17.764Z,1018.9
2017-02-19T06:43:27.329Z,1018.86
2017-02-19T06:44:36.252Z,1018.89
2017-02-19T06:45:45.587Z,1018.89
2017-02-19T06:46:55.326Z,1018.86
2017-02-19T06:48:04.662Z,1018.84
2017-02-19T06:49:14.442Z,1018.8
2017-02-19T06:50:23.772Z,1018.87
2017-02-19T06:51:33.515Z,1018.81
2017-02-19T06:52:43.251Z,1018.8
2017-02-19T06:53:52.982Z,1018.89
2017-02-19T06:55:01.913Z,1018.85
2017-02-19T06:56:11.646Z,1018.8
2017-02-19T06:57:20.974Z,1018.88
2017-02-19T06:58:29.930Z,1018.85
2017-02-19T06:59:40.113Z,1018.88
2017-02-19T07:00:49.185Z,1018.84
2017-02-19T07:01:58.510Z,1018.89
2017-02-19T07:03:08.235Z,1018.92
2017-02-19T07:04:17.555Z,1018.85
2017-02-19T07:05:27.291Z,1018.86
2017-02-19T07:06:36.816Z,1018.82
2017-02-19T07:07:46.150Z,1018.85
2017-02-19T07:08:55.895Z,1018.82
2017-02-19T07:10:06.028Z,1018.85
2017-02-19T07:11:14.945Z,1018.81
2017-02-19T07:12:24.679Z,1018.77
2017-02-19T07:13:35.257Z,1018.71
2017-02-19T07:14:44.776Z,1018.74
2017-02-19T07:15:54.532Z,1018.76
2017-02-19T07:17:04.293Z,1018.71
2017-02-19T07:18:13.965Z,1018.71
2017-02-19T07:19:23.692Z,1018.75
2017-02-19T07:20:33.009Z,1018.76
2017-02-19T07:21:42.329Z,1018.72
2017-02-19T07:22:52.071Z,1018.79
2017-02-19T07:24:01.419Z,1018.7
2017-02-19T07:25:10.362Z,1018.75
2017-02-19T07:26:20.114Z,1018.76
2017-02-19T07:27:29.052Z,1018.73
2017-02-19T07:28:38.853Z,1018.74
2017-02-19T07:29:49.104Z,1018.7
2017-02-19T07:30:58.886Z,1018.72
2017-02-19T07:32:09.047Z,1018.75
2017-02-19T07:33:18.843Z,1018.72
2017-02-19T07:34:28.642Z,1018.77
2017-02-19T07:35:38.521Z,1018.7
2017-02-19T07:36:47.475Z,1018.73
2017-02-19T07:37:56.398Z,1018.73
2017-02-19T07:39:06.149Z,1018.72
2017-02-19T07:40:15.491Z,1018.64
2017-02-19T07:41:25.786Z,1018.73
2017-02-19T07:42:35.531Z,1018.68
2017-02-19T07:43:45.041Z,1018.74
2017-02-19T07:44:54.444Z,1018.69
2017-02-19T07:46:04.233Z,1018.73
2017-02-19T07:47:14.760Z,1018.69
2017-02-19T07:48:23.672Z,1018.71
2017-02-19T07:49:33.052Z,1018.7
2017-02-19T07:50:42.018Z,1018.73
2017-02-19T07:51:50.978Z,1018.68
2017-02-19T07:53:00.784Z,1018.71
2017-02-19T07:54:10.143Z,1018.71
2017-02-19T07:55:20.796Z,1018.82
2017-02-19T07:56:29.757Z,1018.83
2017-02-19T07:57:39.120Z,1018.93
2017-02-19T07:58:48.670Z,1018.97
2017-02-19T07:59:58.301Z,1019.02
2017-02-19T08:01:07.676Z,1019.03
2017-02-19T08:02:16.636Z,1018.99
2017-02-19T08:03:26.297Z,1019
2017-02-19T08:04:36.306Z,1018.99
2017-02-19T08:05:45.638Z,1018.93
2017-02-19T08:06:55.057Z,1018.88
2017-02-19T08:08:04.200Z,1018.87
2017-02-19T08:09:14.335Z,1018.85
2017-02-19T08:10:23.720Z,1018.71
2017-02-19T08:11:33.458Z,1018.79
2017-02-19T08:12:42.404Z,1018.85
2017-02-19T08:13:51.365Z,1018.9
2017-02-19T08:15:00.743Z,1018.92
2017-02-19T08:16:10.568Z,1018.91
2017-02-19T08:17:19.481Z,1018.88
2017-02-19T08:18:28.466Z,1018.89
2017-02-19T08:19:37.897Z,1018.88
2017-02-19T08:20:47.677Z,1018.86
2017-02-19T08:21:57.149Z,1018.89
2017-02-19T08:23:06.476Z,1018.85
2017-02-19T08:24:15.803Z,1018.84
2017-02-19T08:25:24.753Z,1018.85
2017-02-19T08:26:34.546Z,1018.8
2017-02-19T08:27:44.899Z,1018.74
2017-02-19T08:28:54.256Z,1018.71
2017-02-19T08:30:04.035Z,1018.73
2017-02-19T08:31:13.365Z,1018.79
2017-02-19T08:32:23.097Z,1018.77
2017-02-19T08:33:32.181Z,1018.73
2017-02-19T08:34:41.521Z,1018.74
2017-02-19T08:35:50.864Z,1018.75
2017-02-19T08:37:00.181Z,1018.76
2017-02-19T08:38:09.928Z,1018.76
2017-02-19T08:39:19.598Z,1018.73
2017-02-19T08:40:28.927Z,1018.86
2017-02-19T08:41:37.846Z,1018.8
2017-02-19T08:42:47.599Z,1018.84
2017-02-19T08:43:57.342Z,1018.85
2017-02-19T08:45:06.675Z,1018.83
2017-02-19T08:46:16.005Z,1018.81
2017-02-19T08:47:25.770Z,1018.74
2017-02-19T08:48:35.494Z,1018.68
2017-02-19T08:49:44.825Z,1018.65
2017-02-19T08:50:54.708Z,1018.65
2017-02-19T08:52:04.057Z,1018.65
2017-02-19T08:53:13.818Z,1018.73
2017-02-19T08:54:23.967Z,1018.75
2017-02-19T08:55:33.719Z,1018.73
2017-02-19T08:56:43.205Z,1018.83
2017-02-19T08:57:52.943Z,1018.8
2017-02-19T08:59:02.274Z,1018.88
2017-02-19T09:00:11.195Z,1018.81
2017-02-19T09:01:20.531Z,1018.86
2017-02-19T09:02:30.049Z,1018.84
2017-02-19T09:03:39.369Z,1018.84
2017-02-19T09:04:49.113Z,1018.81
2017-02-19T09:05:58.443Z,1018.78
2017-02-19T09:07:07.787Z,1018.74
2017-02-19T09:08:16.769Z,1018.75
2017-02-19T09:09:26.516Z,1018.81
2017-02-19T09:10:35.446Z,1018.73
2017-02-19T09:11:44.777Z,1018.69
2017-02-19T09:12:54.519Z,1018.63
2017-02-19T09:14:03.708Z,1018.63
2017-02-19T09:15:13.025Z,1018.62
2017-02-19T09:16:22.782Z,1018.61
2017-02-19T09:17:32.111Z,1018.53
2017-02-19T09:18:41.842Z,1018.49
2017-02-19T09:19:51.555Z,1018.53
2017-02-19T09:21:00.948Z,1018.53
2017-02-19T09:22:09.877Z,1018.52
2017-02-19T09:23:18.789Z,1018.52
2017-02-19T09:24:27.730Z,1018.65
2017-02-19T09:25:36.803Z,1018.6
2017-02-19T09:26:45.720Z,1018.6
2017-02-19T09:27:55.057Z,1018.6
2017-02-19T09:29:04.831Z,1018.63
2017-02-19T09:30:14.150Z,1018.56
2017-02-19T09:31:24.406Z,1018.63
2017-02-19T09:32:33.770Z,1018.65
2017-02-19T09:33:43.094Z,1018.65
2017-02-19T09:34:52.421Z,1018.59
2017-02-19T09:36:02.176Z,1018.6
2017-02-19T09:37:12.231Z,1018.61
2017-02-19T09:38:21.564Z,1018.56
2017-02-19T09:39:32.152Z,1018.55
2017-02-19T09:40:41.080Z,1018.61
2017-02-19T09:41:51.244Z,1018.57
2017-02-19T09:43:00.322Z,1018.6
2017-02-19T09:44:10.866Z,1018.53
2017-02-19T09:45:20.598Z,1018.56
2017-02-19T09:46:29.516Z,1018.59
2017-02-19T09:47:38.878Z,1018.62
2017-02-19T09:48:47.835Z,1018.56
2017-02-19T09:49:57.588Z,1018.56
2017-02-19T09:51:06.933Z,1018.54
2017-02-19T09:52:17.096Z,1018.64
2017-02-19T09:53:26.424Z,1018.56
2017-02-19T09:54:36.227Z,1018.53
2017-02-19T09:55:45.961Z,1018.55
2017-02-19T09:56:55.300Z,1018.63
2017-02-19T09:58:04.656Z,1018.51
2017-02-19T09:59:14.388Z,1018.6
2017-02-19T10:00:23.785Z,1018.54
2017-02-19T10:01:33.968Z,1018.48
2017-02-19T10:02:43.555Z,1018.52
2017-02-19T10:03:52.486Z,1018.41
2017-02-19T10:05:01.825Z,1018.53
2017-02-19T10:06:10.773Z,1018.51
2017-02-19T10:07:19.688Z,1018.55
2017-02-19T10:08:29.447Z,1018.5
2017-02-19T10:09:39.191Z,1018.47
2017-02-19T10:10:48.935Z,1018.58
2017-02-19T10:11:58.852Z,1018.54
2017-02-19T10:13:08.196Z,1018.55
2017-02-19T10:14:17.527Z,1018.55
2017-02-19T10:15:26.449Z,1018.64
2017-02-19T10:16:35.779Z,1018.51
2017-02-19T10:17:45.511Z,1018.52
2017-02-19T10:18:54.428Z,1018.58
2017-02-19T10:20:03.752Z,1018.56
2017-02-19T10:21:13.375Z,1018.59
2017-02-19T10:22:23.352Z,1018.54
2017-02-19T10:23:33.167Z,1018.59
2017-02-19T10:24:42.488Z,1018.64
2017-02-19T10:25:51.817Z,1018.58
2017-02-19T10:27:01.558Z,1018.61
2017-02-19T10:28:10.912Z,1018.58
2017-02-19T10:29:20.697Z,1018.54
2017-02-19T10:30:30.485Z,1018.59
2017-02-19T10:31:40.219Z,1018.63
2017-02-19T10:32:49.142Z,1018.68
2017-02-19T10:33:58.502Z,1018.68
2017-02-19T10:35:07.831Z,1018.72
2017-02-19T10:36:17.564Z,1018.71
2017-02-19T10:37:26.595Z,1018.73
2017-02-19T10:38:36.346Z,1018.75
2017-02-19T10:39:45.688Z,1018.79
2017-02-19T10:40:55.016Z,1018.79
2017-02-19T10:42:05.167Z,1018.8
2017-02-19T10:43:14.593Z,1018.79
2017-02-19T10:44:24.332Z,1018.8
2017-02-19T10:45:33.648Z,1018.78
2017-02-19T10:46:43.412Z,1018.77
2017-02-19T10:47:52.770Z,1018.77
2017-02-19T10:49:02.247Z,1018.77
2017-02-19T10:50:12.001Z,1018.78
2017-02-19T10:51:20.950Z,1018.78
2017-02-19T10:52:30.727Z,1018.8
2017-02-19T10:53:40.890Z,1018.81
2017-02-19T10:54:50.529Z,1018.8
2017-02-19T10:56:00.269Z,1018.91
2017-02-19T10:57:10.021Z,1018.81
2017-02-19T10:58:19.378Z,1018.81
2017-02-19T10:59:29.119Z,1018.81
2017-02-19T11:00:38.626Z,1018.74
2017-02-19T11:01:47.972Z,1018.77
2017-02-19T11:02:56.888Z,1018.72
2017-02-19T11:04:05.808Z,1018.72
2017-02-19T11:05:14.721Z,1018.71
2017-02-19T11:06:24.123Z,1018.72
2017-02-19T11:07:33.454Z,1018.74
2017-02-19T11:08:42.786Z,1018.75
2017-02-19T11:09:52.520Z,1018.72
2017-02-19T11:11:01.856Z,1018.76
2017-02-19T11:12:11.697Z,1018.76
2017-02-19T11:13:21.022Z,1018.72
2017-02-19T11:14:30.360Z,1018.73
2017-02-19T11:15:39.272Z,1018.72
2017-02-19T11:16:49.006Z,1018.67
2017-02-19T11:17:58.784Z,1018.65
2017-02-19T11:19:08.142Z,1018.63
2017-02-19T11:20:17.494Z,1018.65
2017-02-19T11:21:27.636Z,1018.6
2017-02-19T11:22:37.809Z,1018.61
2017-02-19T11:23:47.231Z,1018.6
2017-02-19T11:24:57.388Z,1018.61
2017-02-19T11:26:07.118Z,1018.59
2017-02-19T11:27:16.445Z,1018.57
2017-02-19T11:28:25.778Z,1018.58
2017-02-19T11:29:34.692Z,1018.65
2017-02-19T11:30:44.032Z,1018.52
2017-02-19T11:31:53.371Z,1018.57
2017-02-19T11:33:02.306Z,1018.61
2017-02-19T11:34:11.628Z,1018.59
2017-02-19T11:35:21.054Z,1018.55
2017-02-19T11:36:30.410Z,1018.5
2017-02-19T11:37:39.754Z,1018.5
2017-02-19T11:38:49.478Z,1018.47
2017-02-19T11:39:59.223Z,1018.47
2017-02-19T11:41:09.493Z,1018.42
2017-02-19T11:42:18.834Z,1018.44
2017-02-19T11:43:27.766Z,1018.39
2017-02-19T11:44:37.513Z,1018.36
2017-02-19T11:45:46.832Z,1018.3
2017-02-19T11:46:56.490Z,1018.34
2017-02-19T11:48:06.222Z,1018.33
2017-02-19T11:49:15.143Z,1018.28
2017-02-19T11:50:24.059Z,1018.26
2017-02-19T11:51:33.383Z,1018.22
2017-02-19T11:52:42.837Z,1018.24
2017-02-19T11:53:52.168Z,1018.23
2017-02-19T11:55:01.912Z,1018.25
2017-02-19T11:56:11.673Z,1018.22
2017-02-19T11:57:20.592Z,1018.15
2017-02-19T11:58:29.613Z,1018.16
2017-02-19T11:59:39.369Z,1018.13
2017-02-19T12:00:48.695Z,1018.05
2017-02-19T12:01:58.027Z,1018.02
2017-02-19T12:03:07.374Z,1018.04
2017-02-19T12:04:16.899Z,1018.01
2017-02-19T12:05:26.626Z,1018.04
2017-02-19T12:06:36.362Z,1018.01
2017-02-19T12:07:45.690Z,1017.97
2017-02-19T12:08:54.610Z,1018.01
2017-02-19T12:10:04.098Z,1017.99
2017-02-19T12:11:13.022Z,1017.91
2017-02-19T12:12:21.959Z,1017.83
2017-02-19T12:13:31.277Z,1017.85
2017-02-19T12:14:40.607Z,1017.8
2017-02-19T12:15:50.794Z,1017.85
2017-02-19T12:16:59.740Z,1017.81
2017-02-19T12:18:09.075Z,1017.84
2017-02-19T12:19:18.839Z,1017.79
2017-02-19T12:20:28.597Z,1017.83
2017-02-19T12:21:38.338Z,1017.83
2017-02-19T12:22:47.670Z,1017.85
2017-02-19T12:23:57.006Z,1017.89
2017-02-19T12:25:06.329Z,1017.81
2017-02-19T12:26:15.651Z,1017.84
2017-02-19T12:27:24.563Z,1017.83
2017-02-19T12:28:33.885Z,1017.84
2017-02-19T12:29:43.640Z,1017.86
2017-02-19T12:30:53.383Z,1017.79
2017-02-19T12:32:02.322Z,1017.84
2017-02-19T12:33:12.615Z,1017.88
2017-02-19T12:34:21.531Z,1017.9
2017-02-19T12:35:31.266Z,1017.89
2017-02-19T12:36:40.613Z,1017.85
2017-02-19T12:37:49.939Z,1017.87
2017-02-19T12:38:59.415Z,1017.86
2017-02-19T12:40:08.347Z,1017.89
2017-02-19T12:41:17.276Z,1017.84
2017-02-19T12:42:27.027Z,1017.83
2017-02-19T12:43:35.959Z,1017.87
2017-02-19T12:44:45.347Z,1017.83
2017-02-19T12:45:54.276Z,1017.81
2017-02-19T12:47:03.617Z,1017.85
2017-02-19T12:48:12.938Z,1017.84
2017-02-19T12:49:22.277Z,1017.85
2017-02-19T12:50:32.157Z,1017.83
2017-02-19T12:51:41.070Z,1017.84
2017-02-19T12:52:50.823Z,1017.76
2017-02-19T12:54:00.555Z,1017.82
2017-02-19T12:55:09.475Z,1017.78
2017-02-19T12:56:18.606Z,1017.77
2017-02-19T12:57:27.941Z,1017.71
2017-02-19T12:58:37.684Z,1017.7
2017-02-19T12:59:47.416Z,1017.7
2017-02-19T13:00:57.159Z,1017.71
2017-02-19T13:02:06.963Z,1017.67
2017-02-19T13:03:16.715Z,1017.67
2017-02-19T13:04:26.474Z,1017.69
2017-02-19T13:05:36.629Z,1017.65
2017-02-19T13:06:46.823Z,1017.7
2017-02-19T13:07:56.731Z,1017.68
2017-02-19T13:09:06.478Z,1017.68
2017-02-19T13:10:16.240Z,1017.75
2017-02-19T13:11:26.387Z,1017.71
2017-02-19T13:12:35.717Z,1017.72
2017-02-19T13:13:45.110Z,1017.7
2017-02-19T13:14:54.062Z,1017.64
2017-02-19T13:16:03.795Z,1017.69
2017-02-19T13:17:12.745Z,1017.66
2017-02-19T13:18:22.494Z,1017.64
2017-02-19T13:19:31.981Z,1017.62
2017-02-19T13:20:40.906Z,1017.58
2017-02-19T13:21:51.075Z,1017.61
2017-02-19T13:23:00.408Z,1017.64
2017-02-19T13:24:09.752Z,1017.6
2017-02-19T13:25:19.101Z,1017.63
2017-02-19T13:26:28.032Z,1017.61
2017-02-19T13:27:36.969Z,1017.61
2017-02-19T13:28:46.715Z,1017.64
2017-02-19T13:29:55.638Z,1017.6
2017-02-19T13:31:05.208Z,1017.63
2017-02-19T13:32:14.533Z,1017.6
2017-02-19T13:33:23.856Z,1017.66
2017-02-19T13:34:33.591Z,1017.64
2017-02-19T13:35:42.924Z,1017.65
2017-02-19T13:36:52.881Z,1017.64
2017-02-19T13:38:02.628Z,1017.66
2017-02-19T13:39:12.775Z,1017.67
2017-02-19T13:40:21.700Z,1017.69
2017-02-19T13:41:31.440Z,1017.71
2017-02-19T13:42:40.931Z,1017.75
2017-02-19T13:43:50.290Z,1017.69
2017-02-19T13:45:00.440Z,1017.66
2017-02-19T13:46:09.378Z,1017.64
2017-02-19T13:47:18.773Z,1017.64
2017-02-19T13:48:28.524Z,1017.58
2017-02-19T13:49:37.856Z,1017.57
2017-02-19T13:50:47.591Z,1017.5
2017-02-19T13:51:57.359Z,1017.57
2017-02-19T13:53:07.110Z,1017.58
2017-02-19T13:54:16.975Z,1017.61
2017-02-19T13:55:26.725Z,1017.61
2017-02-19T13:56:36.466Z,1017.55
2017-02-19T13:57:46.084Z,1017.6
2017-02-19T13:58:55.430Z,1017.63
2017-02-19T14:00:04.897Z,1017.62
2017-02-19T14:01:14.304Z,1017.6
2017-02-19T14:02:23.309Z,1017.64
2017-02-19T14:03:33.937Z,1017.6